METAR Data
IDs: Format: Raw Decoded Include TAF

Data at: 1930 UTC 26 Sep 2021

KROG 261858Z 19012KT 10SM CLR 30/12 A3006 RMK AO2 SLP164 T03000122